Time;durP1;ratioP1;P1;durP2;ratioP2;P2;SDS_P1;SDS_P2;PMS_P1;PMS_P2;Temp;Humidity;BMP_temperature;BMP_pressure;BME280_temperature;BME280_humidity;BME280_pressure;Samples;Min_cycle;Max_cycle;Signal;HPM_P1;HPM_P2
2021/05/17 00:00:23;;;;;;;1.60;1.50;;;13.00;99.90;;;;;;5095498;28;20464;-67
2021/05/17 00:02:52;;;;;;;1.47;1.30;;;12.90;99.90;;;;;;5096002;28;20453;-68
2021/05/17 00:05:19;;;;;;;2.17;1.60;;;12.90;99.90;;;;;;5096111;28;20510;-69
2021/05/17 00:07:45;;;;;;;1.77;1.53;;;12.90;99.90;;;;;;5095504;28;20531;-68
2021/05/17 00:10:14;;;;;;;2.03;1.53;;;12.80;99.90;;;;;;5095230;28;20522;-69
2021/05/17 00:12:41;;;;;;;1.60;1.23;;;12.80;99.90;;;;;;5095431;28;20499;-69
2021/05/17 00:15:12;;;;;;;1.23;1.13;;;12.80;99.90;;;;;;5095187;28;20477;-69
2021/05/17 00:17:40;;;;;;;1.40;1.30;;;12.80;99.90;;;;;;5094962;28;20441;-68
2021/05/17 00:20:08;;;;;;;2.80;2.30;;;12.80;99.90;;;;;;5095354;28;20458;-68
2021/05/17 00:22:35;;;;;;;2.03;1.27;;;12.70;99.90;;;;;;5094820;28;20454;-68
2021/05/17 00:25:03;;;;;;;1.70;1.60;;;12.60;99.90;;;;;;5094999;28;20454;-68
2021/05/17 00:27:31;;;;;;;2.40;1.50;;;12.60;99.90;;;;;;5095097;28;20453;-69
2021/05/17 00:29:59;;;;;;;1.50;1.40;;;12.60;99.90;;;;;;5095416;28;20461;-68
2021/05/17 00:32:26;;;;;;;2.10;1.83;;;12.50;99.90;;;;;;5096322;28;20538;-68
2021/05/17 00:34:52;;;;;;;1.90;1.50;;;12.50;99.90;;;;;;5099673;28;20839;-68
2021/05/17 00:37:19;;;;;;;1.43;1.33;;;12.50;99.90;;;;;;5099639;28;20457;-67
2021/05/17 00:39:45;;;;;;;2.17;1.70;;;12.50;99.90;;;;;;5099354;28;20838;-67
2021/05/17 00:42:12;;;;;;;1.87;1.60;;;12.40;99.90;;;;;;5099531;28;20526;-68
2021/05/17 00:44:41;;;;;;;3.83;1.43;;;12.40;99.90;;;;;;5099141;28;20461;-67
2021/05/17 00:47:10;;;;;;;1.97;1.70;;;12.40;99.90;;;;;;5099229;28;20792;-69
2021/05/17 00:49:37;;;;;;;1.70;1.60;;;12.40;99.90;;;;;;5098978;28;20526;-70
2021/05/17 00:52:03;;;;;;;1.80;1.70;;;12.40;99.90;;;;;;5098831;28;20987;-69
2021/05/17 00:54:30;;;;;;;2.10;1.90;;;12.40;99.90;;;;;;5099095;28;20456;-69
2021/05/17 00:56:57;;;;;;;1.67;1.50;;;12.40;99.90;;;;;;5099224;28;20472;-69
2021/05/17 00:59:23;;;;;;;1.80;1.70;;;12.30;99.90;;;;;;5098822;28;20483;-70
2021/05/17 01:01:51;;;;;;;1.80;1.40;;;12.30;99.90;;;;;;5098817;28;20453;-69
2021/05/17 01:04:17;;;;;;;1.40;1.30;;;12.30;99.90;;;;;;5098681;28;20457;-68
2021/05/17 01:06:45;;;;;;;1.90;1.70;;;12.30;99.90;;;;;;5098092;28;20490;-68
2021/05/17 01:09:13;;;;;;;1.70;1.60;;;12.30;99.90;;;;;;5098314;28;20525;-69
2021/05/17 01:11:39;;;;;;;2.00;1.40;;;12.20;99.90;;;;;;5098213;28;20738;-68
2021/05/17 01:14:09;;;;;;;6.50;1.83;;;12.20;99.90;;;;;;5098184;28;20457;-68
2021/05/17 01:16:36;;;;;;;1.63;1.53;;;12.20;99.90;;;;;;5098036;28;20473;-68
2021/05/17 01:19:06;;;;;;;3.83;1.90;;;12.20;99.90;;;;;;5098216;28;20453;-68
2021/05/17 01:21:37;;;;;;;1.87;1.60;;;12.20;99.90;;;;;;5098044;28;20537;-68
2021/05/17 01:24:05;;;;;;;1.83;1.63;;;12.20;99.90;;;;;;5098241;28;20437;-70
2021/05/17 01:26:33;;;;;;;1.70;1.60;;;12.20;99.90;;;;;;5097902;28;20468;-68
2021/05/17 01:29:01;;;;;;;1.70;1.60;;;12.10;99.90;;;;;;5097942;28;20463;-69
2021/05/17 01:31:28;;;;;;;1.93;1.47;;;12.10;99.90;;;;;;5098271;28;20489;-67
2021/05/17 01:33:57;;;;;;;1.87;1.77;;;12.10;99.90;;;;;;5097745;28;20449;-68
2021/05/17 01:36:24;;;;;;;1.73;1.63;;;12.10;99.90;;;;;;5097527;28;20978;-67
2021/05/17 01:38:52;;;;;;;1.73;1.43;;;12.10;99.90;;;;;;5097881;28;20522;-68
2021/05/17 01:41:20;;;;;;;3.93;1.70;;;12.10;99.90;;;;;;5098215;28;20453;-68
2021/05/17 01:43:52;;;;;;;2.07;1.60;;;12.10;99.90;;;;;;5098060;28;20461;-68
2021/05/17 01:46:21;;;;;;;2.00;1.70;;;12.10;99.90;;;;;;5099024;28;20438;-70
2021/05/17 01:48:48;;;;;;;2.00;1.80;;;12.00;99.90;;;;;;5097379;28;20551;-69
2021/05/17 01:51:16;;;;;;;1.70;1.60;;;12.00;99.90;;;;;;5097719;28;20468;-69
2021/05/17 01:53:44;;;;;;;1.90;1.67;;;12.00;99.90;;;;;;5097585;28;20457;-69
2021/05/17 01:56:12;;;;;;;2.37;1.70;;;12.00;99.90;;;;;;5097409;28;20854;-69
2021/05/17 01:58:40;;;;;;;2.33;1.70;;;12.00;99.90;;;;;;5097442;28;20453;-68
2021/05/17 02:01:09;;;;;;;4.80;1.87;;;12.00;99.90;;;;;;5097488;28;20457;-69
2021/05/17 02:03:37;;;;;;;3.10;1.60;;;12.00;99.90;;;;;;5097633;28;20780;-69
2021/05/17 02:06:04;;;;;;;2.10;1.90;;;11.90;99.90;;;;;;5097329;28;20465;-69
2021/05/17 02:08:31;;;;;;;1.87;1.63;;;11.80;99.90;;;;;;5097505;28;20457;-69
2021/05/17 02:10:58;;;;;;;2.53;2.13;;;11.80;99.90;;;;;;5097230;28;20465;-69
2021/05/17 02:13:26;;;;;;;2.50;1.80;;;11.80;99.90;;;;;;5097328;28;20468;-70
2021/05/17 02:15:54;;;;;;;1.73;1.63;;;11.80;99.90;;;;;;5097109;28;20484;-69
2021/05/17 02:18:24;;;;;;;3.47;2.23;;;11.80;99.90;;;;;;5097074;28;20497;-69
2021/05/17 02:20:51;;;;;;;2.00;1.80;;;11.80;99.90;;;;;;5097160;28;20464;-69
2021/05/17 02:23:18;;;;;;;4.40;1.77;;;11.90;99.90;;;;;;5097016;28;20449;-69
2021/05/17 02:25:46;;;;;;;1.97;1.73;;;11.90;99.90;;;;;;5096654;28;20453;-69
2021/05/17 02:28:13;;;;;;;2.27;2.07;;;11.90;99.90;;;;;;5096942;28;20458;-69
2021/05/17 02:30:40;;;;;;;2.30;1.90;;;11.90;99.90;;;;;;5096211;28;20453;-69
2021/05/17 02:33:09;;;;;;;1.73;1.63;;;11.90;99.90;;;;;;5096761;28;20772;-69
2021/05/17 02:35:37;;;;;;;2.00;1.73;;;11.90;99.90;;;;;;5096145;28;20481;-69
2021/05/17 02:38:04;;;;;;;1.83;1.73;;;11.90;99.90;;;;;;5096826;28;20559;-69
2021/05/17 02:40:31;;;;;;;1.80;1.70;;;11.90;99.90;;;;;;5096481;28;20457;-69
2021/05/17 02:43:01;;;;;;;7.03;2.50;;;11.90;99.90;;;;;;5096578;28;20956;-69
2021/05/17 02:45:30;;;;;;;2.33;1.70;;;11.90;99.90;;;;;;5096642;28;20449;-69
2021/05/17 02:47:57;;;;;;;2.10;1.90;;;11.90;99.90;;;;;;5096514;28;20784;-69
2021/05/17 02:50:32;;;;;;;2.00;1.80;;;12.00;99.90;;;;;;5096298;28;20549;-69
2021/05/17 02:52:59;;;;;;;2.17;1.90;;;12.00;99.90;;;;;;5096714;28;20821;-69
2021/05/17 02:55:30;;;;;;;3.70;2.40;;;12.00;99.90;;;;;;5095686;28;20564;-69
2021/05/17 02:58:04;;;;;;;2.60;2.10;;;12.00;99.90;;;;;;5095872;28;20437;-69
2021/05/17 03:00:32;;;;;;;2.67;2.00;;;12.00;99.90;;;;;;5096562;28;20972;-69
2021/05/17 03:03:02;;;;;;;3.03;2.00;;;12.00;99.90;;;;;;5096088;28;20461;-69
2021/05/17 03:05:33;;;;;;;2.20;2.03;;;12.00;99.90;;;;;;5096019;28;20460;-69
2021/05/17 03:08:04;;;;;;;4.20;2.10;;;12.00;99.90;;;;;;5096140;28;20537;-69
2021/05/17 03:10:32;;;;;;;2.10;1.80;;;12.00;99.90;;;;;;5096033;28;20464;-68
2021/05/17 03:13:03;;;;;;;1.80;1.70;;;12.00;99.90;;;;;;5095965;28;20506;-69
2021/05/17 03:15:31;;;;;;;3.03;1.90;;;12.00;99.90;;;;;;5096083;28;20465;-69
2021/05/17 03:17:58;;;;;;;2.33;1.90;;;11.90;99.90;;;;;;5096007;28;20480;-69
2021/05/17 03:20:25;;;;;;;3.00;1.93;;;11.90;99.90;;;;;;5095886;28;20453;-69
2021/05/17 03:22:54;;;;;;;2.30;2.00;;;11.80;99.90;;;;;;5095863;28;20485;-69
2021/05/17 03:25:24;;;;;;;3.47;2.17;;;11.70;99.90;;;;;;5095735;28;20472;-69
2021/05/17 03:27:50;;;;;;;2.40;2.20;;;11.60;99.90;;;;;;5095817;28;20453;-69
2021/05/17 03:30:18;;;;;;;2.53;2.33;;;11.50;99.90;;;;;;5095616;28;20454;-69
2021/05/17 03:32:44;;;;;;;2.60;2.40;;;11.50;99.90;;;;;;5095466;28;20485;-69
2021/05/17 03:35:11;;;;;;;3.90;2.40;;;11.40;99.90;;;;;;5095536;28;20461;-69
2021/05/17 03:37:37;;;;;;;3.03;2.73;;;11.40;99.90;;;;;;5095655;28;20454;-69
2021/05/17 03:40:06;;;;;;;2.90;2.13;;;11.30;99.90;;;;;;5095411;28;20461;-68
2021/05/17 03:42:32;;;;;;;2.83;2.20;;;11.30;99.90;;;;;;5095419;28;20922;-69
2021/05/17 03:44:58;;;;;;;2.77;2.57;;;11.30;99.90;;;;;;5095099;28;20928;-70
2021/05/17 03:47:25;;;;;;;4.33;2.10;;;11.30;99.90;;;;;;5095307;28;20480;-69
2021/05/17 03:49:51;;;;;;;4.87;2.70;;;11.40;99.90;;;;;;5095154;28;20458;-69
2021/05/17 03:52:17;;;;;;;4.43;2.90;;;11.50;99.90;;;;;;5095286;28;20452;-68
2021/05/17 03:54:43;;;;;;;2.97;2.20;;;11.50;99.90;;;;;;5095276;28;20458;-69
2021/05/17 03:57:11;;;;;;;4.00;2.50;;;11.50;99.90;;;;;;5094939;28;20554;-69
2021/05/17 03:59:37;;;;;;;3.20;2.90;;;11.50;99.90;;;;;;5095943;28;20453;-69
2021/05/17 04:02:04;;;;;;;4.13;3.27;;;11.50;99.90;;;;;;5095025;28;20468;-70
2021/05/17 04:04:36;;;;;;;4.87;2.60;;;11.50;99.90;;;;;;5095116;28;20913;-68
2021/05/17 04:07:08;;;;;;;6.60;3.30;;;11.50;99.90;;;;;;5094928;28;20444;-70
2021/05/17 04:13:16;;;;;;;3.60;2.77;;;11.60;99.90;;;;;;5094966;28;20494;-68
2021/05/17 04:15:18;;;;;;;3.97;3.50;;;11.60;99.90;;;;;;5094703;28;20529;-69
2021/05/17 04:17:44;;;;;;;3.43;3.13;;;11.60;99.90;;;;;;5094851;28;20453;-69
2021/05/17 04:20:11;;;;;;;3.97;2.97;;;11.60;99.90;;;;;;5095135;28;20458;-70
2021/05/17 04:22:37;;;;;;;3.43;3.10;;;11.60;99.90;;;;;;5095404;28;20457;-68
2021/05/17 04:25:05;;;;;;;4.97;3.07;;;11.60;99.90;;;;;;5094738;28;20948;-69
2021/05/17 04:27:32;;;;;;;3.30;3.00;;;11.60;99.90;;;;;;5094645;28;20571;-69
2021/05/17 04:29:58;;;;;;;2.87;2.50;;;11.60;99.90;;;;;;5094660;28;20933;-68
2021/05/17 04:32:25;;;;;;;3.40;3.10;;;11.50;99.90;;;;;;5094627;28;20496;-70
2021/05/17 04:34:51;;;;;;;3.50;2.77;;;11.60;99.90;;;;;;5094868;28;20453;-68
2021/05/17 04:37:17;;;;;;;3.80;2.80;;;11.60;99.90;;;;;;5094742;28;20488;-69
2021/05/17 04:39:43;;;;;;;3.90;3.30;;;11.50;99.90;;;;;;5095443;28;20458;-68
2021/05/17 04:42:09;;;;;;;5.50;3.30;;;11.60;99.90;;;;;;5095077;28;20465;-67
2021/05/17 04:44:36;;;;;;;3.27;3.00;;;11.60;99.90;;;;;;5094886;28;20480;-67
2021/05/17 04:47:03;;;;;;;2.87;2.53;;;11.70;99.90;;;;;;5094838;28;20460;-68
2021/05/17 04:49:29;;;;;;;5.00;2.90;;;11.70;99.90;;;;;;5095007;28;20779;-68
2021/05/17 04:51:56;;;;;;;3.20;2.90;;;11.70;99.90;;;;;;5094463;28;20453;-68
2021/05/17 04:54:23;;;;;;;3.90;2.93;;;11.70;99.90;;;;;;5094724;28;20458;-68
2021/05/17 04:56:52;;;;;;;4.20;3.30;;;11.70;99.90;;;;;;5094303;28;20563;-68
2021/05/17 04:59:20;;;;;;;5.93;3.27;;;11.70;99.90;;;;;;5094749;28;20453;-68
2021/05/17 05:01:48;;;;;;;3.83;3.40;;;11.70;99.90;;;;;;5095078;28;20460;-68
2021/05/17 05:04:14;;;;;;;5.30;3.20;;;11.70;99.90;;;;;;5094373;28;20464;-68
2021/05/17 05:06:41;;;;;;;3.13;2.90;;;11.70;99.90;;;;;;5094264;28;20450;-68
2021/05/17 05:09:07;;;;;;;3.63;2.80;;;11.80;99.90;;;;;;5095216;28;20461;-68
2021/05/17 05:11:33;;;;;;;4.07;2.80;;;11.80;99.90;;;;;;5096190;28;20810;-68
2021/05/17 05:14:03;;;;;;;3.20;2.87;;;11.80;99.90;;;;;;5095522;28;20457;-67
2021/05/17 05:16:29;;;;;;;2.83;2.53;;;11.90;99.90;;;;;;5095272;28;20983;-68
2021/05/17 05:18:56;;;;;;;4.90;2.87;;;11.90;99.90;;;;;;5095308;28;20461;-68
2021/05/17 05:21:22;;;;;;;2.63;2.43;;;12.00;99.90;;;;;;5098340;28;20449;-69
2021/05/17 05:23:48;;;;;;;3.70;2.70;;;12.00;99.90;;;;;;5099091;28;20514;-68
2021/05/17 05:29:09;;;;;;;5.47;2.60;;;12.00;99.90;;;;;;5098338;28;20482;-68
2021/05/17 05:31:39;;;;;;;3.83;2.70;;;12.00;99.90;;;;;;5097857;28;20481;-68
2021/05/17 05:34:06;;;;;;;3.33;2.27;;;12.10;99.90;;;;;;5098526;28;20560;-68
2021/05/17 05:36:33;;;;;;;2.40;2.17;;;12.10;99.90;;;;;;5098499;28;20592;-68
2021/05/17 05:39:00;;;;;;;4.17;2.40;;;12.20;99.90;;;;;;5098926;28;20461;-69
2021/05/17 05:41:30;;;;;;;5.40;2.00;;;12.30;99.90;;;;;;5098238;28;20760;-69
2021/05/17 05:43:56;;;;;;;2.47;2.00;;;12.30;99.90;;;;;;5097886;28;20544;-69
2021/05/17 05:46:22;;;;;;;3.90;2.83;;;12.40;99.90;;;;;;5098088;28;20550;-69
2021/05/17 05:48:48;;;;;;;3.17;1.77;;;12.40;99.90;;;;;;5097866;28;20533;-69
2021/05/17 05:51:17;;;;;;;2.70;1.87;;;12.50;99.90;;;;;;5097989;28;20478;-69
2021/05/17 05:53:44;;;;;;;1.80;1.50;;;12.60;99.90;;;;;;5097582;28;20457;-69
2021/05/17 05:56:10;;;;;;;2.73;1.40;;;12.60;99.90;;;;;;5097942;28;20477;-69
2021/05/17 05:58:36;;;;;;;2.60;1.40;;;12.60;99.90;;;;;;5097971;28;20544;-69
2021/05/17 06:01:03;;;;;;;4.13;1.60;;;12.70;99.90;;;;;;5097771;28;20458;-68
2021/05/17 06:03:30;;;;;;;3.97;1.73;;;12.70;99.90;;;;;;5097876;28;20457;-70
2021/05/17 06:05:59;;;;;;;2.27;1.20;;;12.80;99.90;;;;;;5098668;28;20453;-69
2021/05/17 06:08:27;;;;;;;1.97;1.40;;;12.80;99.90;;;;;;5097494;28;20449;-69
2021/05/17 06:10:55;;;;;;;1.50;1.23;;;12.90;99.90;;;;;;5097779;28;20776;-68
2021/05/17 06:13:22;;;;;;;3.17;1.40;;;12.90;99.90;;;;;;5097892;28;20457;-69
2021/05/17 06:15:49;;;;;;;1.70;1.30;;;12.90;99.90;;;;;;5098291;28;20484;-68
2021/05/17 06:18:16;;;;;;;1.87;1.67;;;13.00;99.90;;;;;;5097371;28;20457;-69
2021/05/17 06:20:43;;;;;;;2.13;1.33;;;13.10;99.90;;;;;;5098069;28;20485;-69
2021/05/17 06:23:13;;;;;;;1.70;1.20;;;13.10;99.90;;;;;;5098162;28;20884;-69
2021/05/17 06:25:40;;;;;;;1.87;1.20;;;13.10;99.90;;;;;;5097712;28;20921;-69
2021/05/17 06:28:08;;;;;;;3.53;1.13;;;13.30;99.90;;;;;;5097977;28;20456;-69
2021/05/17 06:30:43;;;;;;;1.53;1.13;;;13.40;99.90;;;;;;5098304;28;20457;-69
2021/05/17 06:33:16;;;;;;;2.70;1.30;;;13.60;99.90;;;;;;5098318;28;20838;-70
2021/05/17 06:35:45;;;;;;;3.57;1.50;;;13.70;99.90;;;;;;5098024;28;20535;-69
2021/05/17 06:38:12;;;;;;;2.23;1.50;;;13.80;99.90;;;;;;5099020;28;20527;-67
2021/05/17 06:40:38;;;;;;;1.47;1.13;;;13.90;99.90;;;;;;5098697;28;20465;-67
2021/05/17 06:43:08;;;;;;;2.90;1.03;;;13.90;99.90;;;;;;5098202;28;20457;-66
2021/05/17 06:45:36;;;;;;;2.27;1.20;;;14.00;99.90;;;;;;5098403;28;20438;-67
2021/05/17 06:48:04;;;;;;;3.23;1.30;;;14.10;99.90;;;;;;5103000;28;20769;-67
2021/05/17 06:50:31;;;;;;;1.53;1.10;;;14.30;99.90;;;;;;5105591;28;20457;-67
2021/05/17 06:52:58;;;;;;;2.07;1.07;;;14.40;99.90;;;;;;5106467;28;20902;-66
2021/05/17 06:55:30;;;;;;;2.27;1.67;;;14.50;99.90;;;;;;5104655;28;20449;-67
2021/05/17 06:58:07;;;;;;;2.17;1.20;;;14.60;99.90;;;;;;5098261;28;20438;-67
2021/05/17 07:00:36;;;;;;;2.87;1.20;;;14.60;99.90;;;;;;5097951;28;20552;-67
2021/05/17 07:03:07;;;;;;;2.03;0.90;;;14.70;99.90;;;;;;5098241;28;20457;-67
2021/05/17 07:05:34;;;;;;;1.30;1.00;;;14.80;99.90;;;;;;5098728;28;20433;-66
2021/05/17 07:13:34;;;;;;;1.40;1.00;;;14.70;99.90;;;;;;5096848;28;20437;-67
2021/05/17 07:16:01;;;;;;;1.20;1.00;;;14.70;99.90;;;;;;5097022;28;20477;-67
2021/05/17 07:18:27;;;;;;;2.50;1.00;;;14.60;99.90;;;;;;5098143;28;20461;-67
2021/05/17 07:23:39;;;;;;;1.73;0.87;;;14.50;99.90;;;;;;5097170;28;20471;-67
2021/05/17 07:26:08;;;;;;;1.30;0.73;;;14.40;99.90;;;;;;5097229;28;20813;-67
2021/05/17 07:28:35;;;;;;;1.90;1.20;;;14.40;99.90;;;;;;5097275;28;20457;-67
2021/05/17 07:31:05;;;;;;;2.57;1.10;;;14.30;99.90;;;;;;5096659;28;20810;-69
2021/05/17 07:33:32;;;;;;;2.60;1.00;;;14.20;99.90;;;;;;5095938;28;20469;-69
2021/05/17 07:35:59;;;;;;;1.17;0.80;;;14.30;99.90;;;;;;5096210;28;20486;-68
2021/05/17 07:38:29;;;;;;;1.10;0.83;;;14.30;99.90;;;;;;5095930;28;20454;-68
2021/05/17 07:40:56;;;;;;;1.53;0.90;;;14.30;99.90;;;;;;5095918;28;20556;-68
2021/05/17 07:43:22;;;;;;;2.50;0.90;;;14.30;99.90;;;;;;5095288;28;20457;-68
2021/05/17 07:45:49;;;;;;;1.20;0.90;;;14.30;99.90;;;;;;5096082;28;20457;-69
2021/05/17 07:48:16;;;;;;;1.27;0.80;;;14.30;99.90;;;;;;5095985;28;20921;-69
2021/05/17 07:50:43;;;;;;;1.57;0.90;;;14.30;99.90;;;;;;5095726;28;20887;-69
2021/05/17 07:53:10;;;;;;;1.13;0.93;;;14.30;99.90;;;;;;5096278;28;20785;-68
2021/05/17 07:55:36;;;;;;;1.40;1.07;;;14.40;99.90;;;;;;5095933;28;20485;-69
2021/05/17 07:58:02;;;;;;;2.87;1.20;;;14.50;99.90;;;;;;5096214;28;20457;-67
2021/05/17 08:00:28;;;;;;;2.03;0.70;;;14.50;99.90;;;;;;5095524;28;20453;-67
2021/05/17 08:02:54;;;;;;;1.27;0.80;;;14.60;99.90;;;;;;5095430;28;20467;-67
2021/05/17 08:05:22;;;;;;;1.43;0.80;;;14.60;99.90;;;;;;5095211;28;20449;-67
2021/05/17 08:07:48;;;;;;;1.47;1.03;;;14.60;99.90;;;;;;5095600;28;20792;-68
2021/05/17 08:10:15;;;;;;;2.60;1.00;;;14.70;99.90;;;;;;5095420;28;20488;-67
2021/05/17 08:12:41;;;;;;;1.33;0.97;;;14.70;99.90;;;;;;5095608;28;20476;-67
2021/05/17 08:15:08;;;;;;;3.20;1.00;;;14.90;99.90;;;;;;5095624;28;20921;-68
2021/05/17 08:17:35;;;;;;;2.47;1.00;;;15.00;99.90;;;;;;5095768;28;20496;-67
2021/05/17 08:20:03;;;;;;;1.10;0.90;;;15.10;99.90;;;;;;5095406;28;20750;-67
2021/05/17 08:22:30;;;;;;;1.30;0.80;;;15.30;99.90;;;;;;5095406;28;20468;-67
2021/05/17 08:24:56;;;;;;;1.40;0.90;;;15.50;99.90;;;;;;5095520;28;20453;-67
2021/05/17 08:27:27;;;;;;;1.20;0.70;;;15.70;99.90;;;;;;5095097;28;20991;-67
2021/05/17 08:29:54;;;;;;;1.73;0.90;;;15.80;99.90;;;;;;5096070;28;20858;-67
2021/05/17 08:32:20;;;;;;;1.20;0.77;;;15.90;99.90;;;;;;5094535;28;20477;-68
2021/05/17 08:34:46;;;;;;;1.10;0.80;;;16.00;99.90;;;;;;5094641;28;20457;-67
2021/05/17 08:37:12;;;;;;;1.00;0.70;;;16.10;99.90;;;;;;5095190;28;20488;-67
2021/05/17 08:39:40;;;;;;;1.50;0.70;;;16.20;99.90;;;;;;5094718;28;20773;-67
2021/05/17 08:42:07;;;;;;;2.63;0.80;;;16.30;99.90;;;;;;5094925;28;20935;-67
2021/05/17 08:44:35;;;;;;;2.50;1.00;;;16.30;99.90;;;;;;5096739;28;20476;-68
2021/05/17 08:47:02;;;;;;;2.23;0.80;;;16.10;99.90;;;;;;5094586;28;20453;-69
2021/05/17 08:49:29;;;;;;;1.40;0.80;;;16.10;99.90;;;;;;5095268;28;20530;-70
2021/05/17 08:51:55;;;;;;;1.80;1.10;;;16.20;99.90;;;;;;5094694;28;20458;-68
2021/05/17 08:54:35;;;;;;;3.43;1.03;;;16.30;99.90;;;;;;5096217;28;20746;-70
2021/05/17 08:57:06;;;;;;;2.40;0.70;;;16.40;99.90;;;;;;5099243;28;20473;-70
2021/05/17 08:59:35;;;;;;;2.07;0.83;;;16.40;99.90;;;;;;5100241;28;20929;-70
2021/05/17 09:02:02;;;;;;;1.63;0.70;;;16.40;99.90;;;;;;5099769;28;20453;-69
2021/05/17 09:04:28;;;;;;;1.67;0.80;;;16.40;99.90;;;;;;5099299;28;20468;-69
2021/05/17 09:06:56;;;;;;;1.97;0.80;;;16.40;99.90;;;;;;5100021;28;20765;-70
2021/05/17 09:09:28;;;;;;;1.00;0.70;;;16.60;99.90;;;;;;5099519;28;20771;-68
2021/05/17 09:11:56;;;;;;;1.40;0.70;;;16.70;99.90;;;;;;5099657;28;20505;-70
2021/05/17 09:14:24;;;;;;;1.40;0.80;;;16.80;99.90;;;;;;5099996;28;20517;-69
2021/05/17 09:16:54;;;;;;;0.90;0.60;;;16.90;99.90;;;;;;5099848;28;20572;-69
2021/05/17 09:19:22;;;;;;;1.10;0.60;;;17.00;99.90;;;;;;5099424;28;20460;-69
2021/05/17 09:22:12;;;;;;;1.00;0.60;;;17.00;99.90;;;;;;5099228;28;20846;-69
2021/05/17 09:24:41;;;;;;;1.77;0.73;;;17.00;99.90;;;;;;5098857;28;20445;-69
2021/05/17 09:27:09;;;;;;;1.00;0.63;;;17.00;99.90;;;;;;5098141;28;20905;-68
2021/05/17 09:29:40;;;;;;;1.17;0.70;;;17.10;99.90;;;;;;5098703;28;20457;-69
2021/05/17 09:32:16;;;;;;;0.90;0.60;;;17.10;99.90;;;;;;5098573;28;20546;-68
2021/05/17 09:34:44;;;;;;;1.30;0.80;;;17.20;99.90;;;;;;5099238;28;20911;-69
2021/05/17 09:37:11;;;;;;;1.77;0.60;;;17.20;99.90;;;;;;5098051;28;20839;-69
2021/05/17 09:39:48;;;;;;;1.00;0.63;;;17.30;99.90;;;;;;5098489;28;20921;-69
2021/05/17 09:42:27;;;;;;;1.40;0.63;;;17.40;99.90;;;;;;5098056;28;20437;-69
2021/05/17 09:44:57;;;;;;;3.43;0.83;;;17.50;99.90;;;;;;5098368;28;20453;-67
2021/05/17 09:47:27;;;;;;;1.50;0.70;;;17.70;99.90;;;;;;5099061;28;20453;-70
2021/05/17 09:49:56;;;;;;;0.97;0.70;;;17.60;99.90;;;;;;5098074;28;20485;-68
2021/05/17 09:52:24;;;;;;;1.57;1.00;;;17.60;99.90;;;;;;5097983;28;20547;-69
2021/05/17 09:55:00;;;;;;;2.17;0.70;;;17.50;99.90;;;;;;5098033;28;20468;-69
2021/05/17 09:57:30;;;;;;;5.33;0.80;;;17.40;99.90;;;;;;5097691;28;20461;-70
2021/05/17 10:00:04;;;;;;;1.50;0.90;;;17.30;99.90;;;;;;5099021;28;20453;-68
2021/05/17 10:02:34;;;;;;;1.00;0.70;;;17.20;99.90;;;;;;5098053;28;20521;-68
2021/05/17 10:05:19;;;;;;;1.30;0.70;;;17.20;99.90;;;;;;5096531;28;20453;-68
2021/05/17 10:07:47;;;;;;;1.10;0.70;;;17.20;99.90;;;;;;5097717;28;20460;-67
2021/05/17 10:10:14;;;;;;;1.20;0.70;;;17.30;99.90;;;;;;5098456;28;20784;-69
2021/05/17 10:12:43;;;;;;;1.20;0.50;;;17.40;99.90;;;;;;5097399;28;20472;-69
2021/05/17 10:15:14;;;;;;;2.80;0.90;;;17.60;99.90;;;;;;5097168;28;20552;-68
2021/05/17 10:17:41;;;;;;;1.23;0.70;;;17.70;99.90;;;;;;5097421;28;20464;-69
2021/05/17 10:20:09;;;;;;;1.20;0.93;;;17.90;99.90;;;;;;5097606;28;20889;-69
2021/05/17 10:22:36;;;;;;;1.30;0.80;;;18.00;99.90;;;;;;5097467;28;20520;-68
2021/05/17 10:25:06;;;;;;;0.90;0.60;;;18.00;99.90;;;;;;5097807;28;20460;-69
2021/05/17 10:27:38;;;;;;;1.60;0.70;;;18.00;99.90;;;;;;5097416;28;20450;-68
2021/05/17 10:30:09;;;;;;;1.20;0.60;;;18.00;99.90;;;;;;5098300;28;20469;-69
2021/05/17 10:32:53;;;;;;;1.77;0.70;;;18.10;99.90;;;;;;5097181;28;20485;-68
2021/05/17 10:35:21;;;;;;;2.03;0.60;;;18.30;99.90;;;;;;5096864;28;20445;-67
2021/05/17 10:37:48;;;;;;;1.43;0.87;;;18.40;99.90;;;;;;5096551;28;20491;-69
2021/05/17 10:40:34;;;;;;;1.47;0.77;;;18.50;99.90;;;;;;5097148;28;20511;-68
2021/05/17 10:43:10;;;;;;;1.87;0.80;;;18.70;99.90;;;;;;5096519;28;20453;-69
2021/05/17 10:48:28;;;;;;;3.07;0.70;;;18.90;99.90;;;;;;5097012;28;20547;-68
2021/05/17 10:51:17;;;;;;;1.00;0.63;;;18.90;99.90;;;;;;5096678;28;20510;-68
2021/05/17 10:53:48;;;;;;;1.93;0.70;;;18.80;99.90;;;;;;5096410;28;20442;-68
2021/05/17 10:56:17;;;;;;;1.70;0.70;;;18.80;99.90;;;;;;5096529;28;20473;-68
2021/05/17 11:01:55;;;;;;;0.90;0.60;;;19.00;99.90;;;;;;5089516;28;20472;-67
2021/05/17 11:04:31;;;;;;;1.30;0.70;;;19.10;99.90;;;;;;5096323;28;20449;-69
2021/05/17 11:07:23;;;;;;;1.53;0.67;;;19.20;99.90;;;;;;5096278;28;20524;-69
2021/05/17 11:10:01;;;;;;;2.33;0.90;;;19.30;99.90;;;;;;5096923;28;20514;-67
2021/05/17 11:12:59;;;;;;;1.40;0.80;;;19.30;99.90;;;;;;5095787;28;20449;-68
2021/05/17 11:15:48;;;;;;;1.00;0.70;;;19.40;99.90;;;;;;5096801;28;20449;-68
2021/05/17 11:18:25;;;;;;;2.00;1.00;;;19.60;99.90;;;;;;5090101;28;20506;-69
2021/05/17 11:20:54;;;;;;;1.70;0.83;;;20.30;99.90;;;;;;5096497;28;20517;-68
2021/05/17 11:24:04;;;;;;;1.60;0.90;;;21.40;99.90;;;;;;5096443;28;20449;-68
2021/05/17 11:26:33;;;;;;;1.10;0.70;;;22.40;99.90;;;;;;5096185;28;20438;-68
2021/05/17 11:29:09;;;;;;;1.77;0.80;;;23.00;99.90;;;;;;5096578;28;20449;-67
2021/05/17 11:31:42;;;;;;;3.70;0.70;;;23.50;99.90;;;;;;5095924;28;20533;-68
2021/05/17 11:34:15;;;;;;;1.10;0.70;;;24.00;99.70;;;;;;5095876;28;20781;-68
2021/05/17 11:36:47;;;;;;;1.37;0.70;;;24.00;98.10;;;;;;5096094;28;20552;-69
2021/05/17 11:39:16;;;;;;;1.53;0.80;;;23.90;97.40;;;;;;5095528;28;20854;-69
2021/05/17 11:41:45;;;;;;;1.60;0.80;;;23.80;96.70;;;;;;5095566;28;20453;-69
2021/05/17 11:44:16;;;;;;;1.17;0.70;;;23.70;96.30;;;;;;5095807;28;20511;-68
2021/05/17 11:46:46;;;;;;;2.33;0.80;;;23.00;96.00;;;;;;5095622;28;20434;-68
2021/05/17 11:49:13;;;;;;;1.97;0.70;;;22.60;97.80;;;;;;5095311;28;20511;-68
2021/05/17 11:51:41;;;;;;;3.40;1.37;;;22.50;97.10;;;;;;5095489;28;20460;-67
2021/05/17 11:54:08;;;;;;;1.00;0.60;;;22.40;98.60;;;;;;5096366;28;20905;-70
2021/05/17 11:56:40;;;;;;;1.10;0.60;;;22.10;97.90;;;;;;5095572;28;20783;-69
2021/05/17 11:59:10;;;;;;;1.00;0.60;;;22.50;96.90;;;;;;5096441;28;20730;-69
2021/05/17 12:01:37;;;;;;;0.97;0.60;;;23.20;94.20;;;;;;5095170;28;20467;-70
2021/05/17 12:04:14;;;;;;;1.77;0.67;;;23.90;93.10;;;;;;5096647;28;20513;-68
2021/05/17 12:06:41;;;;;;;1.20;0.60;;;24.60;91.70;;;;;;5095700;28;20522;-69
2021/05/17 12:09:09;;;;;;;2.00;0.70;;;25.00;89.10;;;;;;5095930;28;20462;-68
2021/05/17 12:11:46;;;;;;;6.33;0.80;;;24.60;84.50;;;;;;5095187;28;20784;-69
2021/05/17 12:14:12;;;;;;;1.57;0.70;;;24.50;81.80;;;;;;5094800;28;20904;-70
2021/05/17 12:16:39;;;;;;;1.60;0.70;;;24.40;83.50;;;;;;5094951;28;20587;-69
2021/05/17 12:19:05;;;;;;;1.20;0.67;;;24.50;84.00;;;;;;5094891;28;20461;-69
2021/05/17 12:21:33;;;;;;;2.00;0.70;;;24.80;83.30;;;;;;5095520;28;20457;-68
2021/05/17 12:23:59;;;;;;;1.80;0.70;;;25.40;84.30;;;;;;5095164;28;20488;-68
2021/05/17 12:26:26;;;;;;;1.00;0.70;;;26.20;79.10;;;;;;5094791;28;20525;-67
2021/05/17 12:29:02;;;;;;;2.50;1.00;;;26.90;76.80;;;;;;5094863;28;20522;-67
2021/05/17 12:31:29;;;;;;;1.00;0.60;;;27.40;67.70;;;;;;5094990;28;20835;-67
2021/05/17 12:33:55;;;;;;;1.20;0.93;;;27.40;64.10;;;;;;5094869;28;20814;-67
2021/05/17 12:36:21;;;;;;;1.10;0.70;;;27.00;62.00;;;;;;5095359;28;20477;-67
2021/05/17 12:38:49;;;;;;;1.40;0.80;;;27.00;61.60;;;;;;5094761;28;20468;-67
2021/05/17 12:41:39;;;;;;;1.40;0.60;;;27.10;60.30;;;;;;5095773;28;20465;-67
2021/05/17 12:44:30;;;;;;;1.03;0.67;;;27.40;59.40;;;;;;5095016;28;20444;-68
2021/05/17 12:47:08;;;;;;;1.20;0.70;;;27.60;59.30;;;;;;5095312;28;20460;-68
2021/05/17 12:49:45;;;;;;;2.30;0.77;;;27.10;58.20;;;;;;5095379;28;20438;-68
2021/05/17 12:52:12;;;;;;;1.43;0.70;;;26.00;59.00;;;;;;5095792;28;20519;-68
2021/05/17 12:54:40;;;;;;;2.03;0.70;;;24.90;60.00;;;;;;5096447;28;20491;-68
2021/05/17 12:57:13;;;;;;;3.40;0.97;;;23.70;62.80;;;;;;5096116;28;20512;-68
2021/05/17 12:59:46;;;;;;;1.97;0.80;;;22.80;64.20;;;;;;5095499;28;20445;-68
2021/05/17 13:02:13;;;;;;;1.80;0.70;;;22.30;67.10;;;;;;5095641;28;20453;-67
2021/05/17 13:04:39;;;;;;;2.33;1.00;;;22.00;69.40;;;;;;5095659;28;20452;-67
2021/05/17 13:07:09;;;;;;;1.10;0.70;;;21.60;72.10;;;;;;5096046;28;20449;-68
2021/05/17 13:09:36;;;;;;;1.00;0.70;;;21.30;73.10;;;;;;5095232;28;20833;-69
2021/05/17 13:12:03;;;;;;;2.20;0.80;;;21.00;75.60;;;;;;5094630;28;20453;-68
2021/05/17 13:14:30;;;;;;;1.00;0.70;;;20.80;78.00;;;;;;5094812;28;20453;-68
2021/05/17 13:17:00;;;;;;;1.70;0.93;;;20.80;79.70;;;;;;5094095;28;20538;-68